sensor_id;sensor_type;location;lat;lon;timestamp;P1;durP1;ratioP1;P2;durP2;ratioP2
40204;SDS011;26963;42.666;23.366;2023-05-31T00:02:23;11.93;;;5.63;;
40204;SDS011;26963;42.666;23.366;2023-05-31T00:04:48;7.38;;;5.10;;
40204;SDS011;26963;42.666;23.366;2023-05-31T00:07:14;7.22;;;5.10;;
40204;SDS011;26963;42.666;23.366;2023-05-31T00:09:40;8.45;;;5.55;;
40204;SDS011;26963;42.666;23.366;2023-05-31T00:12:05;8.07;;;5.50;;
40204;SDS011;26963;42.666;23.366;2023-05-31T00:14:31;6.68;;;5.30;;
40204;SDS011;26963;42.666;23.366;2023-05-31T00:16:56;6.93;;;5.60;;
40204;SDS011;26963;42.666;23.366;2023-05-31T00:19:22;6.53;;;5.30;;
40204;SDS011;26963;42.666;23.366;2023-05-31T00:21:47;9.55;;;5.15;;
40204;SDS011;26963;42.666;23.366;2023-05-31T00:24:13;8.88;;;5.68;;
40204;SDS011;26963;42.666;23.366;2023-05-31T00:26:39;7.20;;;5.15;;
40204;SDS011;26963;42.666;23.366;2023-05-31T00:29:04;5.93;;;5.10;;
40204;SDS011;26963;42.666;23.366;2023-05-31T00:31:30;5.88;;;4.90;;
40204;SDS011;26963;42.666;23.366;2023-05-31T00:33:56;6.47;;;5.10;;
40204;SDS011;26963;42.666;23.366;2023-05-31T00:36:23;8.18;;;5.22;;
40204;SDS011;26963;42.666;23.366;2023-05-31T00:38:49;8.40;;;5.70;;
40204;SDS011;26963;42.666;23.366;2023-05-31T00:41:15;10.30;;;5.25;;
40204;SDS011;26963;42.666;23.366;2023-05-31T00:43:42;6.15;;;5.55;;
40204;SDS011;26963;42.666;23.366;2023-05-31T00:46:14;7.80;;;5.90;;
40204;SDS011;26963;42.666;23.366;2023-05-31T00:48:52;9.02;;;5.40;;
40204;SDS011;26963;42.666;23.366;2023-05-31T00:51:18;7.40;;;5.78;;
40204;SDS011;26963;42.666;23.366;2023-05-31T00:53:44;7.72;;;5.50;;
40204;SDS011;26963;42.666;23.366;2023-05-31T00:56:11;6.50;;;4.95;;
40204;SDS011;26963;42.666;23.366;2023-05-31T00:58:37;8.90;;;5.75;;
40204;SDS011;26963;42.666;23.366;2023-05-31T01:01:05;7.10;;;5.53;;
40204;SDS011;26963;42.666;23.366;2023-05-31T01:03:32;9.32;;;5.72;;
40204;SDS011;26963;42.666;23.366;2023-05-31T01:05:58;6.40;;;5.32;;
40204;SDS011;26963;42.666;23.366;2023-05-31T01:08:25;9.63;;;6.05;;
40204;SDS011;26963;42.666;23.366;2023-05-31T01:10:51;8.18;;;5.88;;
40204;SDS011;26963;42.666;23.366;2023-05-31T01:13:23;8.10;;;6.07;;
40204;SDS011;26963;42.666;23.366;2023-05-31T01:16:02;12.88;;;5.95;;
40204;SDS011;26963;42.666;23.366;2023-05-31T01:18:52;7.35;;;5.93;;
40204;SDS011;26963;42.666;23.366;2023-05-31T01:21:37;7.93;;;5.50;;
40204;SDS011;26963;42.666;23.366;2023-05-31T01:24:31;7.75;;;5.60;;
40204;SDS011;26963;42.666;23.366;2023-05-31T01:27:08;8.43;;;5.40;;
40204;SDS011;26963;42.666;23.366;2023-05-31T01:29:34;6.78;;;5.35;;
40204;SDS011;26963;42.666;23.366;2023-05-31T01:32:04;6.55;;;5.20;;
40204;SDS011;26963;42.666;23.366;2023-05-31T01:34:31;7.75;;;5.13;;
40204;SDS011;26963;42.666;23.366;2023-05-31T01:36:57;7.72;;;5.38;;
40204;SDS011;26963;42.666;23.366;2023-05-31T01:39:22;6.43;;;4.93;;
40204;SDS011;26963;42.666;23.366;2023-05-31T01:41:48;7.03;;;4.75;;
40204;SDS011;26963;42.666;23.366;2023-05-31T01:44:15;8.00;;;5.40;;
40204;SDS011;26963;42.666;23.366;2023-05-31T01:46:43;8.63;;;5.32;;
40204;SDS011;26963;42.666;23.366;2023-05-31T01:49:10;6.85;;;4.93;;
40204;SDS011;26963;42.666;23.366;2023-05-31T01:51:37;6.88;;;5.35;;
40204;SDS011;26963;42.666;23.366;2023-05-31T01:54:05;8.40;;;4.93;;
40204;SDS011;26963;42.666;23.366;2023-05-31T01:56:31;6.85;;;4.93;;
40204;SDS011;26963;42.666;23.366;2023-05-31T01:58:57;8.57;;;4.72;;
40204;SDS011;26963;42.666;23.366;2023-05-31T02:01:23;5.80;;;4.55;;
40204;SDS011;26963;42.666;23.366;2023-05-31T02:03:49;6.15;;;4.80;;
40204;SDS011;26963;42.666;23.366;2023-05-31T02:06:18;7.50;;;4.57;;
40204;SDS011;26963;42.666;23.366;2023-05-31T02:08:44;7.35;;;4.85;;
40204;SDS011;26963;42.666;23.366;2023-05-31T02:11:10;8.95;;;4.93;;
40204;SDS011;26963;42.666;23.366;2023-05-31T02:13:36;6.47;;;4.57;;
40204;SDS011;26963;42.666;23.366;2023-05-31T02:16:01;5.82;;;4.72;;
40204;SDS011;26963;42.666;23.366;2023-05-31T02:18:28;6.13;;;4.50;;
40204;SDS011;26963;42.666;23.366;2023-05-31T02:20:54;7.95;;;5.15;;
40204;SDS011;26963;42.666;23.366;2023-05-31T02:23:20;5.47;;;4.93;;
40204;SDS011;26963;42.666;23.366;2023-05-31T02:25:47;6.38;;;5.00;;
40204;SDS011;26963;42.666;23.366;2023-05-31T02:28:13;6.05;;;4.45;;
40204;SDS011;26963;42.666;23.366;2023-05-31T02:30:39;7.97;;;4.93;;
40204;SDS011;26963;42.666;23.366;2023-05-31T02:33:06;8.30;;;4.93;;
40204;SDS011;26963;42.666;23.366;2023-05-31T02:35:32;6.00;;;4.45;;
40204;SDS011;26963;42.666;23.366;2023-05-31T02:37:58;9.70;;;5.80;;
40204;SDS011;26963;42.666;23.366;2023-05-31T02:40:24;11.30;;;8.00;;
40204;SDS011;26963;42.666;23.366;2023-05-31T02:42:50;13.52;;;7.90;;
40204;SDS011;26963;42.666;23.366;2023-05-31T02:45:15;10.70;;;8.57;;
40204;SDS011;26963;42.666;23.366;2023-05-31T02:47:41;9.77;;;6.72;;
40204;SDS011;26963;42.666;23.366;2023-05-31T02:50:07;8.25;;;6.32;;
40204;SDS011;26963;42.666;23.366;2023-05-31T02:52:34;7.28;;;5.90;;
40204;SDS011;26963;42.666;23.366;2023-05-31T02:55:03;12.52;;;8.73;;
40204;SDS011;26963;42.666;23.366;2023-05-31T02:57:30;13.70;;;9.25;;
40204;SDS011;26963;42.666;23.366;2023-05-31T02:59:57;13.05;;;10.07;;
40204;SDS011;26963;42.666;23.366;2023-05-31T03:02:23;14.63;;;9.65;;
40204;SDS011;26963;42.666;23.366;2023-05-31T03:04:49;12.38;;;9.50;;
40204;SDS011;26963;42.666;23.366;2023-05-31T03:07:16;11.57;;;9.13;;
40204;SDS011;26963;42.666;23.366;2023-05-31T03:09:42;13.95;;;9.73;;
40204;SDS011;26963;42.666;23.366;2023-05-31T03:12:07;11.60;;;9.05;;
40204;SDS011;26963;42.666;23.366;2023-05-31T03:14:33;15.63;;;9.23;;
40204;SDS011;26963;42.666;23.366;2023-05-31T03:16:59;13.90;;;9.90;;
40204;SDS011;26963;42.666;23.366;2023-05-31T03:19:24;11.10;;;8.60;;
40204;SDS011;26963;42.666;23.366;2023-05-31T03:21:50;10.88;;;7.13;;
40204;SDS011;26963;42.666;23.366;2023-05-31T03:24:15;8.23;;;6.75;;
40204;SDS011;26963;42.666;23.366;2023-05-31T03:26:41;10.10;;;6.75;;
40204;SDS011;26963;42.666;23.366;2023-05-31T03:29:06;10.40;;;7.30;;
40204;SDS011;26963;42.666;23.366;2023-05-31T03:31:32;12.65;;;7.95;;
40204;SDS011;26963;42.666;23.366;2023-05-31T03:33:58;10.18;;;7.28;;
40204;SDS011;26963;42.666;23.366;2023-05-31T03:36:25;11.00;;;7.53;;
40204;SDS011;26963;42.666;23.366;2023-05-31T03:38:51;12.73;;;8.00;;
40204;SDS011;26963;42.666;23.366;2023-05-31T03:41:16;10.65;;;6.85;;
40204;SDS011;26963;42.666;23.366;2023-05-31T03:43:42;11.85;;;7.78;;
40204;SDS011;26963;42.666;23.366;2023-05-31T03:46:08;10.88;;;7.95;;
40204;SDS011;26963;42.666;23.366;2023-05-31T03:48:33;8.98;;;7.45;;
40204;SDS011;26963;42.666;23.366;2023-05-31T03:50:59;11.73;;;7.75;;
40204;SDS011;26963;42.666;23.366;2023-05-31T03:53:25;11.85;;;8.00;;
40204;SDS011;26963;42.666;23.366;2023-05-31T03:55:50;14.68;;;9.57;;
40204;SDS011;26963;42.666;23.366;2023-05-31T03:58:16;16.40;;;12.02;;
40204;SDS011;26963;42.666;23.366;2023-05-31T04:00:42;18.25;;;12.88;;
40204;SDS011;26963;42.666;23.366;2023-05-31T04:03:08;15.10;;;11.35;;
40204;SDS011;26963;42.666;23.366;2023-05-31T04:05:37;17.52;;;12.57;;
40204;SDS011;26963;42.666;23.366;2023-05-31T04:08:03;15.95;;;12.18;;
40204;SDS011;26963;42.666;23.366;2023-05-31T04:10:30;16.05;;;12.43;;
40204;SDS011;26963;42.666;23.366;2023-05-31T04:12:56;15.15;;;11.60;;
40204;SDS011;26963;42.666;23.366;2023-05-31T04:15:21;18.33;;;12.80;;
40204;SDS011;26963;42.666;23.366;2023-05-31T04:17:47;20.92;;;14.35;;
40204;SDS011;26963;42.666;23.366;2023-05-31T04:20:12;21.17;;;14.45;;
40204;SDS011;26963;42.666;23.366;2023-05-31T04:22:38;19.95;;;14.82;;
40204;SDS011;26963;42.666;23.366;2023-05-31T04:25:04;21.33;;;16.08;;
40204;SDS011;26963;42.666;23.366;2023-05-31T04:27:30;21.90;;;15.68;;
40204;SDS011;26963;42.666;23.366;2023-05-31T04:29:57;30.35;;;21.65;;
40204;SDS011;26963;42.666;23.366;2023-05-31T04:32:26;44.80;;;31.48;;
40204;SDS011;26963;42.666;23.366;2023-05-31T04:34:53;47.35;;;34.05;;
40204;SDS011;26963;42.666;23.366;2023-05-31T04:37:26;35.83;;;24.15;;
40204;SDS011;26963;42.666;23.366;2023-05-31T04:39:53;32.10;;;22.48;;
40204;SDS011;26963;42.666;23.366;2023-05-31T04:42:20;22.52;;;15.55;;
40204;SDS011;26963;42.666;23.366;2023-05-31T04:44:45;20.80;;;15.65;;
40204;SDS011;26963;42.666;23.366;2023-05-31T04:47:12;20.60;;;14.65;;
40204;SDS011;26963;42.666;23.366;2023-05-31T04:49:40;20.58;;;13.35;;
40204;SDS011;26963;42.666;23.366;2023-05-31T04:52:06;17.33;;;12.00;;
40204;SDS011;26963;42.666;23.366;2023-05-31T04:54:33;15.38;;;11.45;;
40204;SDS011;26963;42.666;23.366;2023-05-31T04:56:58;17.77;;;10.90;;
40204;SDS011;26963;42.666;23.366;2023-05-31T04:59:24;17.60;;;11.82;;
40204;SDS011;26963;42.666;23.366;2023-05-31T05:01:50;17.45;;;13.48;;
40204;SDS011;26963;42.666;23.366;2023-05-31T05:04:16;15.40;;;11.30;;
40204;SDS011;26963;42.666;23.366;2023-05-31T05:06:41;12.82;;;10.43;;
40204;SDS011;26963;42.666;23.366;2023-05-31T05:09:07;14.40;;;10.13;;
40204;SDS011;26963;42.666;23.366;2023-05-31T05:11:34;14.85;;;7.07;;
40204;SDS011;26963;42.666;23.366;2023-05-31T05:13:59;14.10;;;7.30;;
40204;SDS011;26963;42.666;23.366;2023-05-31T05:16:25;12.02;;;8.82;;
40204;SDS011;26963;42.666;23.366;2023-05-31T05:18:50;12.18;;;8.95;;
40204;SDS011;26963;42.666;23.366;2023-05-31T05:21:16;12.93;;;8.93;;
40204;SDS011;26963;42.666;23.366;2023-05-31T05:23:41;10.38;;;8.25;;
40204;SDS011;26963;42.666;23.366;2023-05-31T05:26:07;12.40;;;8.00;;
40204;SDS011;26963;42.666;23.366;2023-05-31T05:28:33;13.23;;;11.80;;
40204;SDS011;26963;42.666;23.366;2023-05-31T05:30:59;11.70;;;9.60;;
40204;SDS011;26963;42.666;23.366;2023-05-31T05:33:25;10.48;;;8.75;;
40204;SDS011;26963;42.666;23.366;2023-05-31T05:35:53;11.25;;;9.05;;
40204;SDS011;26963;42.666;23.366;2023-05-31T05:38:18;8.70;;;7.05;;
40204;SDS011;26963;42.666;23.366;2023-05-31T05:40:45;10.07;;;7.53;;
40204;SDS011;26963;42.666;23.366;2023-05-31T05:43:11;11.93;;;7.80;;
40204;SDS011;26963;42.666;23.366;2023-05-31T05:45:37;12.18;;;7.85;;
40204;SDS011;26963;42.666;23.366;2023-05-31T05:48:03;12.25;;;6.93;;
40204;SDS011;26963;42.666;23.366;2023-05-31T05:50:29;9.73;;;7.30;;
40204;SDS011;26963;42.666;23.366;2023-05-31T05:52:54;14.82;;;7.72;;
40204;SDS011;26963;42.666;23.366;2023-05-31T05:55:20;12.65;;;9.07;;
40204;SDS011;26963;42.666;23.366;2023-05-31T05:57:46;10.60;;;8.93;;
40204;SDS011;26963;42.666;23.366;2023-05-31T06:00:12;11.95;;;10.02;;
40204;SDS011;26963;42.666;23.366;2023-05-31T06:02:39;12.90;;;8.20;;
40204;SDS011;26963;42.666;23.366;2023-05-31T06:05:06;12.77;;;8.10;;
40204;SDS011;26963;42.666;23.366;2023-05-31T06:07:32;13.45;;;8.30;;
40204;SDS011;26963;42.666;23.366;2023-05-31T06:09:58;10.93;;;7.65;;
40204;SDS011;26963;42.666;23.366;2023-05-31T06:12:24;14.07;;;8.93;;
40204;SDS011;26963;42.666;23.366;2023-05-31T06:14:50;13.18;;;7.70;;
40204;SDS011;26963;42.666;23.366;2023-05-31T06:17:16;22.92;;;9.60;;
40204;SDS011;26963;42.666;23.366;2023-05-31T06:19:42;11.35;;;8.32;;
40204;SDS011;26963;42.666;23.366;2023-05-31T06:22:07;13.27;;;9.60;;
40204;SDS011;26963;42.666;23.366;2023-05-31T06:24:33;16.83;;;9.93;;
40204;SDS011;26963;42.666;23.366;2023-05-31T06:26:58;18.73;;;12.85;;
40204;SDS011;26963;42.666;23.366;2023-05-31T06:29:24;19.73;;;11.48;;
40204;SDS011;26963;42.666;23.366;2023-05-31T06:31:50;15.52;;;10.38;;
40204;SDS011;26963;42.666;23.366;2023-05-31T06:34:15;15.85;;;12.07;;
40204;SDS011;26963;42.666;23.366;2023-05-31T06:36:41;16.20;;;11.68;;
40204;SDS011;26963;42.666;23.366;2023-05-31T06:39:07;19.73;;;9.43;;
40204;SDS011;26963;42.666;23.366;2023-05-31T06:41:32;20.02;;;11.85;;
40204;SDS011;26963;42.666;23.366;2023-05-31T06:44:00;17.25;;;12.15;;
40204;SDS011;26963;42.666;23.366;2023-05-31T06:46:26;23.88;;;14.52;;
40204;SDS011;26963;42.666;23.366;2023-05-31T06:48:52;16.08;;;11.38;;
40204;SDS011;26963;42.666;23.366;2023-05-31T06:51:18;21.30;;;11.48;;
40204;SDS011;26963;42.666;23.366;2023-05-31T06:53:45;19.42;;;11.27;;
40204;SDS011;26963;42.666;23.366;2023-05-31T06:56:11;15.52;;;11.70;;
40204;SDS011;26963;42.666;23.366;2023-05-31T06:58:37;14.73;;;10.27;;
40204;SDS011;26963;42.666;23.366;2023-05-31T07:01:02;12.77;;;9.30;;
40204;SDS011;26963;42.666;23.366;2023-05-31T07:03:28;14.82;;;9.50;;
40204;SDS011;26963;42.666;23.366;2023-05-31T07:05:53;11.93;;;8.88;;
40204;SDS011;26963;42.666;23.366;2023-05-31T07:08:19;14.48;;;9.18;;
40204;SDS011;26963;42.666;23.366;2023-05-31T07:10:45;11.60;;;9.23;;
40204;SDS011;26963;42.666;23.366;2023-05-31T07:13:10;13.02;;;9.40;;
40204;SDS011;26963;42.666;23.366;2023-05-31T07:15:36;14.70;;;9.50;;
40204;SDS011;26963;42.666;23.366;2023-05-31T07:18:02;13.65;;;9.40;;
40204;SDS011;26963;42.666;23.366;2023-05-31T07:20:28;9.75;;;8.25;;
40204;SDS011;26963;42.666;23.366;2023-05-31T07:22:53;12.10;;;9.82;;
40204;SDS011;26963;42.666;23.366;2023-05-31T07:25:19;11.90;;;8.82;;
40204;SDS011;26963;42.666;23.366;2023-05-31T07:27:44;13.45;;;9.43;;
40204;SDS011;26963;42.666;23.366;2023-05-31T07:30:10;12.48;;;9.85;;
40204;SDS011;26963;42.666;23.366;2023-05-31T07:32:36;14.85;;;9.05;;
40204;SDS011;26963;42.666;23.366;2023-05-31T07:35:02;10.35;;;8.30;;
40204;SDS011;26963;42.666;23.366;2023-05-31T07:37:28;12.75;;;8.57;;
40204;SDS011;26963;42.666;23.366;2023-05-31T07:39:54;11.20;;;7.80;;
40204;SDS011;26963;42.666;23.366;2023-05-31T07:42:19;9.13;;;7.03;;
40204;SDS011;26963;42.666;23.366;2023-05-31T07:44:45;8.95;;;6.78;;
40204;SDS011;26963;42.666;23.366;2023-05-31T07:47:10;11.25;;;6.43;;
40204;SDS011;26963;42.666;23.366;2023-05-31T07:49:36;11.52;;;6.60;;
40204;SDS011;26963;42.666;23.366;2023-05-31T07:52:01;10.13;;;5.80;;
40204;SDS011;26963;42.666;23.366;2023-05-31T07:54:27;10.40;;;6.75;;
40204;SDS011;26963;42.666;23.366;2023-05-31T07:56:52;8.38;;;6.32;;
40204;SDS011;26963;42.666;23.366;2023-05-31T07:59:18;9.52;;;6.60;;
40204;SDS011;26963;42.666;23.366;2023-05-31T08:01:44;10.07;;;6.63;;
40204;SDS011;26963;42.666;23.366;2023-05-31T08:04:11;9.52;;;6.13;;
40204;SDS011;26963;42.666;23.366;2023-05-31T08:06:37;9.63;;;6.28;;
40204;SDS011;26963;42.666;23.366;2023-05-31T08:09:03;13.05;;;6.22;;
40204;SDS011;26963;42.666;23.366;2023-05-31T08:11:32;10.25;;;6.90;;
40204;SDS011;26963;42.666;23.366;2023-05-31T08:14:04;9.98;;;6.82;;
40204;SDS011;26963;42.666;23.366;2023-05-31T08:16:31;12.63;;;7.20;;
40204;SDS011;26963;42.666;23.366;2023-05-31T08:18:57;7.72;;;6.78;;
40204;SDS011;26963;42.666;23.366;2023-05-31T08:21:23;9.40;;;7.03;;
40204;SDS011;26963;42.666;23.366;2023-05-31T08:23:48;12.63;;;6.88;;
40204;SDS011;26963;42.666;23.366;2023-05-31T08:26:14;8.93;;;6.70;;
40204;SDS011;26963;42.666;23.366;2023-05-31T08:28:39;12.02;;;6.15;;
40204;SDS011;26963;42.666;23.366;2023-05-31T08:31:05;7.43;;;5.90;;
40204;SDS011;26963;42.666;23.366;2023-05-31T08:33:32;9.32;;;6.07;;
40204;SDS011;26963;42.666;23.366;2023-05-31T08:35:58;9.00;;;6.07;;
40204;SDS011;26963;42.666;23.366;2023-05-31T08:38:24;9.18;;;5.60;;
40204;SDS011;26963;42.666;23.366;2023-05-31T08:40:53;9.15;;;5.60;;
40204;SDS011;26963;42.666;23.366;2023-05-31T08:43:21;8.50;;;4.97;;
40204;SDS011;26963;42.666;23.366;2023-05-31T08:45:50;7.07;;;5.03;;
40204;SDS011;26963;42.666;23.366;2023-05-31T08:51:03;8.68;;;4.70;;
40204;SDS011;26963;42.666;23.366;2023-05-31T08:53:31;8.55;;;5.43;;
40204;SDS011;26963;42.666;23.366;2023-05-31T08:55:58;9.30;;;5.35;;
40204;SDS011;26963;42.666;23.366;2023-05-31T08:58:26;8.73;;;4.70;;
40204;SDS011;26963;42.666;23.366;2023-05-31T09:00:53;8.25;;;4.88;;
40204;SDS011;26963;42.666;23.366;2023-05-31T09:03:19;11.23;;;5.35;;
40204;SDS011;26963;42.666;23.366;2023-05-31T09:05:47;8.63;;;6.00;;
40204;SDS011;26963;42.666;23.366;2023-05-31T09:08:13;6.57;;;5.53;;
40204;SDS011;26963;42.666;23.366;2023-05-31T09:10:39;6.90;;;5.55;;
40204;SDS011;26963;42.666;23.366;2023-05-31T09:13:06;6.85;;;5.40;;
40204;SDS011;26963;42.666;23.366;2023-05-31T09:15:33;7.75;;;5.88;;
40204;SDS011;26963;42.666;23.366;2023-05-31T09:18:12;8.55;;;5.78;;
40204;SDS011;26963;42.666;23.366;2023-05-31T09:20:41;10.95;;;5.70;;
40204;SDS011;26963;42.666;23.366;2023-05-31T09:23:08;9.05;;;6.03;;
40204;SDS011;26963;42.666;23.366;2023-05-31T09:25:44;9.05;;;5.38;;
40204;SDS011;26963;42.666;23.366;2023-05-31T09:28:14;7.90;;;5.70;;
40204;SDS011;26963;42.666;23.366;2023-05-31T09:30:40;8.88;;;6.95;;
40204;SDS011;26963;42.666;23.366;2023-05-31T09:33:06;9.25;;;6.72;;
40204;SDS011;26963;42.666;23.366;2023-05-31T09:35:33;8.00;;;6.82;;
40204;SDS011;26963;42.666;23.366;2023-05-31T09:38:03;9.50;;;6.38;;
40204;SDS011;26963;42.666;23.366;2023-05-31T09:40:30;8.68;;;6.43;;
40204;SDS011;26963;42.666;23.366;2023-05-31T09:42:57;9.25;;;6.85;;
40204;SDS011;26963;42.666;23.366;2023-05-31T09:48:11;9.88;;;6.88;;
40204;SDS011;26963;42.666;23.366;2023-05-31T09:50:37;9.23;;;7.07;;
40204;SDS011;26963;42.666;23.366;2023-05-31T09:53:04;11.10;;;6.90;;
40204;SDS011;26963;42.666;23.366;2023-05-31T09:55:39;9.52;;;7.88;;
40204;SDS011;26963;42.666;23.366;2023-05-31T09:58:08;9.30;;;6.43;;
40204;SDS011;26963;42.666;23.366;2023-05-31T10:00:33;6.82;;;6.07;;
40204;SDS011;26963;42.666;23.366;2023-05-31T10:02:59;7.18;;;5.63;;
40204;SDS011;26963;42.666;23.366;2023-05-31T10:05:26;7.25;;;5.93;;
40204;SDS011;26963;42.666;23.366;2023-05-31T10:07:52;9.57;;;6.38;;
40204;SDS011;26963;42.666;23.366;2023-05-31T10:10:18;8.07;;;5.95;;
40204;SDS011;26963;42.666;23.366;2023-05-31T10:15:23;8.90;;;5.78;;
40204;SDS011;26963;42.666;23.366;2023-05-31T10:18:02;10.55;;;6.65;;
40204;SDS011;26963;42.666;23.366;2023-05-31T10:20:34;8.43;;;6.40;;
40204;SDS011;26963;42.666;23.366;2023-05-31T10:23:24;9.52;;;6.43;;
40204;SDS011;26963;42.666;23.366;2023-05-31T10:26:02;12.90;;;6.68;;
40204;SDS011;26963;42.666;23.366;2023-05-31T10:28:50;16.67;;;6.45;;
40204;SDS011;26963;42.666;23.366;2023-05-31T10:31:43;7.78;;;5.35;;
40204;SDS011;26963;42.666;23.366;2023-05-31T10:34:21;9.70;;;5.32;;
40204;SDS011;26963;42.666;23.366;2023-05-31T10:36:51;6.38;;;4.78;;
40204;SDS011;26963;42.666;23.366;2023-05-31T10:39:38;7.43;;;4.97;;
40204;SDS011;26963;42.666;23.366;2023-05-31T10:42:12;6.78;;;4.82;;
40204;SDS011;26963;42.666;23.366;2023-05-31T10:44:41;7.43;;;4.50;;
40204;SDS011;26963;42.666;23.366;2023-05-31T10:47:13;8.98;;;4.90;;
40204;SDS011;26963;42.666;23.366;2023-05-31T10:49:41;8.50;;;5.38;;
40204;SDS011;26963;42.666;23.366;2023-05-31T10:52:08;5.38;;;4.35;;
40204;SDS011;26963;42.666;23.366;2023-05-31T10:54:34;6.72;;;4.80;;
40204;SDS011;26963;42.666;23.366;2023-05-31T10:57:02;8.82;;;4.50;;
40204;SDS011;26963;42.666;23.366;2023-05-31T10:59:38;6.70;;;4.63;;
40204;SDS011;26963;42.666;23.366;2023-05-31T11:02:08;7.40;;;5.40;;
40204;SDS011;26963;42.666;23.366;2023-05-31T11:04:34;6.65;;;4.38;;
40204;SDS011;26963;42.666;23.366;2023-05-31T11:09:57;6.50;;;4.80;;
40204;SDS011;26963;42.666;23.366;2023-05-31T11:12:35;9.02;;;6.13;;
40204;SDS011;26963;42.666;23.366;2023-05-31T11:15:02;8.80;;;5.05;;
40204;SDS011;26963;42.666;23.366;2023-05-31T11:17:29;10.18;;;5.90;;
40204;SDS011;26963;42.666;23.366;2023-05-31T11:20:05;11.15;;;5.70;;
40204;SDS011;26963;42.666;23.366;2023-05-31T11:25:43;7.40;;;4.88;;
40204;SDS011;26963;42.666;23.366;2023-05-31T11:28:09;7.93;;;4.95;;
40204;SDS011;26963;42.666;23.366;2023-05-31T11:30:36;10.35;;;5.53;;
40204;SDS011;26963;42.666;23.366;2023-05-31T11:33:02;13.13;;;7.50;;
40204;SDS011;26963;42.666;23.366;2023-05-31T11:35:32;8.90;;;6.72;;
40204;SDS011;26963;42.666;23.366;2023-05-31T11:37:58;8.73;;;6.13;;
40204;SDS011;26963;42.666;23.366;2023-05-31T11:40:26;8.07;;;6.13;;
40204;SDS011;26963;42.666;23.366;2023-05-31T11:42:53;10.07;;;5.60;;
40204;SDS011;26963;42.666;23.366;2023-05-31T11:45:27;12.60;;;6.38;;
40204;SDS011;26963;42.666;23.366;2023-05-31T11:48:03;7.88;;;4.70;;
40204;SDS011;26963;42.666;23.366;2023-05-31T11:50:36;13.32;;;9.60;;
40204;SDS011;26963;42.666;23.366;2023-05-31T11:53:03;14.25;;;9.10;;
40204;SDS011;26963;42.666;23.366;2023-05-31T11:55:32;10.40;;;7.43;;
40204;SDS011;26963;42.666;23.366;2023-05-31T11:57:58;10.77;;;6.75;;
40204;SDS011;26963;42.666;23.366;2023-05-31T12:00:24;10.73;;;7.03;;
40204;SDS011;26963;42.666;23.366;2023-05-31T12:02:51;15.52;;;7.60;;
40204;SDS011;26963;42.666;23.366;2023-05-31T12:05:18;23.88;;;9.13;;
40204;SDS011;26963;42.666;23.366;2023-05-31T12:07:44;12.13;;;7.35;;
40204;SDS011;26963;42.666;23.366;2023-05-31T12:10:10;13.63;;;7.82;;
40204;SDS011;26963;42.666;23.366;2023-05-31T12:12:38;12.05;;;7.15;;
40204;SDS011;26963;42.666;23.366;2023-05-31T12:15:04;11.38;;;6.47;;
40204;SDS011;26963;42.666;23.366;2023-05-31T12:17:32;14.10;;;7.55;;
40204;SDS011;26963;42.666;23.366;2023-05-31T12:19:59;12.90;;;9.30;;
40204;SDS011;26963;42.666;23.366;2023-05-31T12:22:26;13.98;;;10.50;;
40204;SDS011;26963;42.666;23.366;2023-05-31T12:24:54;12.60;;;7.65;;
40204;SDS011;26963;42.666;23.366;2023-05-31T12:27:22;16.60;;;10.52;;
40204;SDS011;26963;42.666;23.366;2023-05-31T12:29:48;13.93;;;8.15;;
40204;SDS011;26963;42.666;23.366;2023-05-31T12:32:14;13.63;;;7.55;;
40204;SDS011;26963;42.666;23.366;2023-05-31T12:34:46;14.85;;;8.77;;
40204;SDS011;26963;42.666;23.366;2023-05-31T12:37:12;15.80;;;9.07;;
40204;SDS011;26963;42.666;23.366;2023-05-31T12:39:38;14.73;;;8.88;;
40204;SDS011;26963;42.666;23.366;2023-05-31T12:42:07;14.70;;;11.15;;
40204;SDS011;26963;42.666;23.366;2023-05-31T12:44:33;18.00;;;9.68;;
40204;SDS011;26963;42.666;23.366;2023-05-31T12:47:00;20.75;;;10.48;;
40204;SDS011;26963;42.666;23.366;2023-05-31T12:49:27;18.90;;;10.48;;
40204;SDS011;26963;42.666;23.366;2023-05-31T12:52:01;16.42;;;10.48;;
40204;SDS011;26963;42.666;23.366;2023-05-31T12:54:29;15.07;;;9.50;;
40204;SDS011;26963;42.666;23.366;2023-05-31T12:56:58;16.88;;;9.23;;
40204;SDS011;26963;42.666;23.366;2023-05-31T12:59:31;9.77;;;7.13;;
40204;SDS011;26963;42.666;23.366;2023-05-31T13:01:57;10.32;;;7.65;;
40204;SDS011;26963;42.666;23.366;2023-05-31T13:04:23;12.43;;;8.45;;
40204;SDS011;26963;42.666;23.366;2023-05-31T13:06:50;11.70;;;7.20;;
40204;SDS011;26963;42.666;23.366;2023-05-31T13:09:17;13.38;;;7.10;;
40204;SDS011;26963;42.666;23.366;2023-05-31T13:11:43;11.68;;;8.38;;
40204;SDS011;26963;42.666;23.366;2023-05-31T13:14:09;13.55;;;10.57;;
40204;SDS011;26963;42.666;23.366;2023-05-31T13:16:36;14.38;;;11.23;;
40204;SDS011;26963;42.666;23.366;2023-05-31T13:19:05;15.95;;;9.27;;
40204;SDS011;26963;42.666;23.366;2023-05-31T13:21:31;18.40;;;9.02;;
40204;SDS011;26963;42.666;23.366;2023-05-31T13:23:58;12.88;;;7.32;;
40204;SDS011;26963;42.666;23.366;2023-05-31T13:26:25;12.18;;;7.47;;
40204;SDS011;26963;42.666;23.366;2023-05-31T13:28:57;13.43;;;7.78;;
40204;SDS011;26963;42.666;23.366;2023-05-31T13:31:25;12.95;;;7.18;;
40204;SDS011;26963;42.666;23.366;2023-05-31T13:33:52;9.18;;;7.38;;
40204;SDS011;26963;42.666;23.366;2023-05-31T13:36:19;11.02;;;7.15;;
40204;SDS011;26963;42.666;23.366;2023-05-31T13:38:45;15.18;;;8.10;;
40204;SDS011;26963;42.666;23.366;2023-05-31T13:41:11;15.23;;;10.35;;
40204;SDS011;26963;42.666;23.366;2023-05-31T13:43:36;16.85;;;11.65;;
40204;SDS011;26963;42.666;23.366;2023-05-31T13:46:03;17.40;;;14.07;;
40204;SDS011;26963;42.666;23.366;2023-05-31T13:48:29;13.43;;;7.80;;
40204;SDS011;26963;42.666;23.366;2023-05-31T13:50:55;9.77;;;6.40;;
40204;SDS011;26963;42.666;23.366;2023-05-31T13:53:20;10.90;;;8.43;;
40204;SDS011;26963;42.666;23.366;2023-05-31T13:55:47;11.57;;;8.18;;
40204;SDS011;26963;42.666;23.366;2023-05-31T13:58:13;12.50;;;8.35;;
40204;SDS011;26963;42.666;23.366;2023-05-31T14:00:38;14.07;;;9.48;;
40204;SDS011;26963;42.666;23.366;2023-05-31T14:03:04;13.93;;;8.20;;
40204;SDS011;26963;42.666;23.366;2023-05-31T14:05:30;15.77;;;8.77;;
40204;SDS011;26963;42.666;23.366;2023-05-31T14:07:56;12.10;;;8.07;;
40204;SDS011;26963;42.666;23.366;2023-05-31T14:10:22;11.90;;;9.02;;
40204;SDS011;26963;42.666;23.366;2023-05-31T14:12:48;10.70;;;7.82;;
40204;SDS011;26963;42.666;23.366;2023-05-31T14:15:14;13.60;;;8.95;;
40204;SDS011;26963;42.666;23.366;2023-05-31T14:17:40;16.63;;;11.55;;
40204;SDS011;26963;42.666;23.366;2023-05-31T14:20:06;15.98;;;9.43;;
40204;SDS011;26963;42.666;23.366;2023-05-31T14:22:32;14.43;;;10.63;;
40204;SDS011;26963;42.666;23.366;2023-05-31T14:24:57;15.98;;;11.02;;
40204;SDS011;26963;42.666;23.366;2023-05-31T14:27:23;14.95;;;10.40;;
40204;SDS011;26963;42.666;23.366;2023-05-31T14:29:49;15.38;;;9.25;;
40204;SDS011;26963;42.666;23.366;2023-05-31T14:32:15;15.18;;;9.18;;
40204;SDS011;26963;42.666;23.366;2023-05-31T14:34:42;15.75;;;10.30;;
40204;SDS011;26963;42.666;23.366;2023-05-31T14:37:09;15.13;;;10.35;;
40204;SDS011;26963;42.666;23.366;2023-05-31T14:39:35;12.02;;;9.77;;